Sant Antoni de Portmany, Spain
Current Conditions -  °F | °C
As of 10:00 AM on Wednesday 28 Jan 2015 (Local Time) from LEIB Reporting Station
Few Clouds Few Clouds  
Wind Chill: 55°   Ceiling: Unl
Heat Index: 55°   Visibility: 6mi
Dew Point: 45°   Wind: 6mph
Humidity: 67%   Direction: 10°N
Pressure: 30.21"   Gusts: NA
Location:  38.98°N, 1.3°E
Report Text: LEIB 280900Z 01005KT 9999 FEW030 13/07 Q1023 NOSIG
Loading
Personal Weather Stations






























Interactive Weather Map New forecast layout! Learn more

10-Day Weather Forecast

Advertisements
Track Severe Weather on mobile